createdAt,value
2022-12-12T00:01:02.796Z,-4.187
2022-12-12T00:03:57.686Z,-4.187
2022-12-12T00:06:57.139Z,-4.187
2022-12-12T00:09:57.507Z,-4.25
2022-12-12T00:12:57.796Z,-4.25
2022-12-12T00:15:57.575Z,-4.25
2022-12-12T00:18:57.374Z,-4.25
2022-12-12T00:21:56.927Z,-4.25
2022-12-12T00:24:58.089Z,-4.187
2022-12-12T00:27:57.176Z,-4.187
2022-12-12T00:30:58.079Z,-4.187
2022-12-12T00:33:57.716Z,-4.187
2022-12-12T00:36:57.626Z,-4.125
2022-12-12T00:39:58.002Z,-4.125
2022-12-12T00:42:57.078Z,-4.125
2022-12-12T00:45:57.479Z,-4.187
2022-12-12T00:48:56.702Z,-4.187
2022-12-12T00:51:57.504Z,-4.187
2022-12-12T00:54:56.702Z,-4.187
2022-12-12T00:57:57.815Z,-4.187
2022-12-12T01:00:57.869Z,-4.187
2022-12-12T01:03:57.483Z,-4.187
2022-12-12T01:06:57.066Z,-4.187
2022-12-12T01:09:57.152Z,-4.187
2022-12-12T01:12:59.344Z,-4.25
2022-12-12T01:15:57.623Z,-4.187
2022-12-12T01:18:57.074Z,-4.187
2022-12-12T01:21:57.529Z,-4.125
2022-12-12T01:24:57.109Z,-4.125
2022-12-12T01:27:57.700Z,-4.125
2022-12-12T01:30:57.714Z,-4.125
2022-12-12T01:33:57.733Z,-4.125
2022-12-12T01:36:57.025Z,-4.125
2022-12-12T01:39:57.179Z,-4.125
2022-12-12T01:42:56.999Z,-4.125
2022-12-12T01:45:57.964Z,-4.187
2022-12-12T01:48:57.532Z,-4.125
2022-12-12T01:51:57.370Z,-4.125
2022-12-12T01:54:57.827Z,-4.125
2022-12-12T01:57:57.711Z,-4.125
2022-12-12T02:00:57.948Z,-4.125
2022-12-12T02:03:57.171Z,-4.187
2022-12-12T02:06:58.089Z,-4.187
2022-12-12T02:09:57.378Z,-4.25
2022-12-12T02:12:57.348Z,-4.25
2022-12-12T02:15:57.415Z,-4.312
2022-12-12T02:18:57.697Z,-4.312
2022-12-12T02:21:57.653Z,-4.312
2022-12-12T02:24:56.878Z,-4.312
2022-12-12T02:27:57.232Z,-4.312
2022-12-12T02:30:57.286Z,-4.312
2022-12-12T02:33:57.261Z,-4.312
2022-12-12T02:36:57.423Z,-4.312
2022-12-12T02:39:57.918Z,-4.312
2022-12-12T02:42:57.384Z,-4.312
2022-12-12T02:45:57.350Z,-4.312
2022-12-12T02:48:57.764Z,-4.312
2022-12-12T02:51:56.852Z,-4.312
2022-12-12T02:54:57.039Z,-4.312
2022-12-12T02:57:56.768Z,-4.312
2022-12-12T03:00:57.116Z,-4.312
2022-12-12T03:03:57.552Z,-4.312
2022-12-12T03:06:57.930Z,-4.375
2022-12-12T03:09:57.335Z,-4.312
2022-12-12T03:12:57.725Z,-4.375
2022-12-12T03:15:58.249Z,-4.437
2022-12-12T03:18:57.553Z,-4.437
2022-12-12T03:21:56.837Z,-4.437
2022-12-12T03:24:57.483Z,-4.5
2022-12-12T03:27:57.730Z,-4.5
2022-12-12T03:30:57.515Z,-4.5
2022-12-12T03:33:57.297Z,-4.562
2022-12-12T03:36:57.264Z,-4.562
2022-12-12T03:39:57.895Z,-4.562
2022-12-12T03:42:58.173Z,-4.687
2022-12-12T03:45:57.826Z,-4.687
2022-12-12T03:48:57.259Z,-4.687
2022-12-12T03:51:56.802Z,-4.687
2022-12-12T03:54:56.919Z,-4.687
2022-12-12T03:57:57.675Z,-4.625
2022-12-12T04:00:57.540Z,-4.625
2022-12-12T04:03:57.024Z,-4.687
2022-12-12T04:06:57.403Z,-4.687
2022-12-12T04:09:57.746Z,-4.687
2022-12-12T04:12:57.480Z,-4.687
2022-12-12T04:15:57.583Z,-4.687
2022-12-12T04:18:57.350Z,-4.687
2022-12-12T04:21:57.643Z,-4.687
2022-12-12T04:24:56.999Z,-4.687
2022-12-12T04:27:56.687Z,-4.687
2022-12-12T04:30:57.757Z,-4.75
2022-12-12T04:33:57.831Z,-4.875
2022-12-12T04:36:56.593Z,-4.937
2022-12-12T04:39:57.340Z,-4.875
2022-12-12T04:42:57.247Z,-4.875
2022-12-12T04:45:57.661Z,-4.875
2022-12-12T04:48:57.014Z,-4.875
2022-12-12T04:51:57.542Z,-4.812
2022-12-12T04:54:57.045Z,-4.812
2022-12-12T04:57:57.210Z,-4.687
2022-12-12T05:00:57.493Z,-4.812
2022-12-12T05:03:57.193Z,-4.812
2022-12-12T05:07:00.025Z,-4.625
2022-12-12T05:09:57.901Z,-4.75
2022-12-12T05:12:57.887Z,-4.75
2022-12-12T05:15:57.709Z,-4.625
2022-12-12T05:18:58.188Z,-4.625
2022-12-12T05:21:57.966Z,-4.625
2022-12-12T05:24:57.691Z,-4.625
2022-12-12T05:27:57.439Z,-4.562
2022-12-12T05:30:58.335Z,-4.5
2022-12-12T05:33:56.801Z,-4.562
2022-12-12T05:36:57.985Z,-4.5
2022-12-12T05:39:56.935Z,-4.437
2022-12-12T05:42:57.193Z,-4.437
2022-12-12T05:45:57.587Z,-4.437
2022-12-12T05:48:58.143Z,-4.375
2022-12-12T05:51:57.710Z,-4.375
2022-12-12T05:54:57.385Z,-4.375
2022-12-12T05:57:58.248Z,-4.312
2022-12-12T06:01:01.617Z,-4.25
2022-12-12T06:03:57.705Z,-4.25
2022-12-12T06:06:57.421Z,-4.312
2022-12-12T06:09:57.975Z,-4.312
2022-12-12T06:12:58.255Z,-4.312
2022-12-12T06:15:57.725Z,-4.375
2022-12-12T06:18:57.684Z,-4.562
2022-12-12T06:21:57.924Z,-4.562
2022-12-12T06:24:58.033Z,-4.625
2022-12-12T06:27:59.161Z,-4.687
2022-12-12T06:30:57.232Z,-4.687
2022-12-12T06:33:57.584Z,-4.625
2022-12-12T06:36:57.756Z,-4.625
2022-12-12T06:39:57.963Z,-4.687
2022-12-12T06:42:58.028Z,-4.687
2022-12-12T06:45:58.005Z,-4.687
2022-12-12T06:48:57.935Z,-4.687
2022-12-12T06:51:57.292Z,-4.75
2022-12-12T06:54:57.566Z,-4.75
2022-12-12T06:57:57.339Z,-4.875
2022-12-12T07:00:58.006Z,-4.875
2022-12-12T07:03:57.534Z,-4.875
2022-12-12T07:06:57.510Z,-5.062
2022-12-12T07:09:57.727Z,-5.062
2022-12-12T07:12:57.708Z,-5.125
2022-12-12T07:15:57.527Z,-5.062
2022-12-12T07:18:57.435Z,-5.062
2022-12-12T07:21:57.393Z,-5.187
2022-12-12T07:24:57.484Z,-5.312
2022-12-12T07:27:57.959Z,-5.312
2022-12-12T07:30:57.613Z,-5.5
2022-12-12T07:33:57.134Z,-5.5
2022-12-12T07:37:02.552Z,-5.562
2022-12-12T07:39:56.924Z,-5.625
2022-12-12T07:42:57.985Z,-5.562
2022-12-12T07:45:56.733Z,-5.5
2022-12-12T07:48:56.910Z,-5.375
2022-12-12T07:51:57.742Z,-5.375
2022-12-12T07:54:57.660Z,-5.312
2022-12-12T07:57:57.723Z,-5.187
2022-12-12T08:00:57.716Z,-5.125
2022-12-12T08:03:57.060Z,-5.125
2022-12-12T08:07:02.769Z,-5.125
2022-12-12T08:09:57.633Z,-5.187
2022-12-12T08:12:56.876Z,-5.062
2022-12-12T08:15:57.169Z,-5.062
2022-12-12T08:18:57.472Z,-5.0
2022-12-12T08:21:57.201Z,-4.937
2022-12-12T08:24:56.775Z,-4.937
2022-12-12T08:27:57.066Z,-4.75
2022-12-12T08:30:57.395Z,-4.75
2022-12-12T08:33:57.309Z,-4.5
2022-12-12T08:36:58.342Z,-4.25
2022-12-12T08:39:57.766Z,-4.125
2022-12-12T08:42:57.066Z,-4.125
2022-12-12T08:45:58.009Z,-4.125
2022-12-12T08:48:57.098Z,-4.125
2022-12-12T08:51:57.268Z,-4.125
2022-12-12T08:54:57.201Z,-3.5
2022-12-12T08:57:57.651Z,-4.0
2022-12-12T09:00:57.693Z,-3.875
2022-12-12T09:03:57.728Z,-3.937
2022-12-12T09:06:56.812Z,-4.0
2022-12-12T09:09:57.635Z,-3.75
2022-12-12T09:12:57.272Z,-3.5
2022-12-12T09:15:57.779Z,-3.187
2022-12-12T09:18:57.570Z,-3.312
2022-12-12T09:21:56.983Z,-3.312
2022-12-12T09:24:58.048Z,-3.125
2022-12-12T09:27:57.239Z,-2.875
2022-12-12T09:30:57.535Z,-2.875
2022-12-12T09:33:57.353Z,-2.625
2022-12-12T09:36:58.036Z,-2.75
2022-12-12T09:39:57.564Z,-2.687
2022-12-12T09:42:57.223Z,-2.687
2022-12-12T09:45:57.390Z,-2.562
2022-12-12T09:48:57.373Z,-2.562
2022-12-12T09:51:57.627Z,-2.875
2022-12-12T09:54:57.066Z,-2.187
2022-12-12T09:57:57.466Z,-2.625
2022-12-12T10:00:58.167Z,-2.375
2022-12-12T10:03:57.074Z,-2.5
2022-12-12T10:06:57.565Z,-2.625
2022-12-12T10:09:57.370Z,-2.437
2022-12-12T10:12:57.628Z,-2.437
2022-12-12T10:15:57.966Z,-3.062
2022-12-12T10:18:57.400Z,-2.875
2022-12-12T10:21:57.974Z,-2.875
2022-12-12T10:24:57.088Z,-3.187
2022-12-12T10:27:56.997Z,-3.0
2022-12-12T10:30:58.370Z,-3.0
2022-12-12T10:33:57.013Z,-2.875
2022-12-12T10:36:57.510Z,-2.562
2022-12-12T10:39:56.861Z,-2.375
2022-12-12T10:42:57.317Z,-2.437
2022-12-12T10:45:58.074Z,-2.75
2022-12-12T10:48:57.806Z,-2.812
2022-12-12T10:51:57.420Z,-2.625
2022-12-12T10:54:57.889Z,-2.75
2022-12-12T10:57:57.413Z,-3.312
2022-12-12T11:00:58.049Z,-2.875
2022-12-12T11:04:15.930Z,-2.937
2022-12-12T11:06:57.967Z,-2.687
2022-12-12T11:10:01.679Z,-2.812
2022-12-12T11:12:57.952Z,-2.812
2022-12-12T11:15:57.899Z,-3.0
2022-12-12T11:18:58.096Z,-3.437
2022-12-12T11:21:57.669Z,-3.5
2022-12-12T11:24:57.928Z,-3.312
2022-12-12T11:28:02.022Z,-3.562
2022-12-12T11:30:57.924Z,-3.375
2022-12-12T11:33:57.717Z,-3.375
2022-12-12T11:36:57.655Z,-3.5
2022-12-12T11:39:57.729Z,-3.25
2022-12-12T11:42:56.782Z,-3.312
2022-12-12T11:45:57.821Z,-3.5
2022-12-12T11:48:56.914Z,-3.562
2022-12-12T11:51:57.016Z,-2.812
2022-12-12T11:54:57.426Z,-1.562
2022-12-12T11:58:03.413Z,-1.125
2022-12-12T12:00:58.196Z,-1.125
2022-12-12T12:03:58.040Z,-0.937
2022-12-12T12:06:57.361Z,-1.062
2022-12-12T12:09:57.567Z,-1.0
2022-12-12T12:12:57.283Z,-0.937
2022-12-12T12:15:57.336Z,-0.687
2022-12-12T12:18:57.109Z,-1.062
2022-12-12T12:21:57.598Z,-1.0
2022-12-12T12:24:57.515Z,-0.562
2022-12-12T12:27:57.130Z,-0.625
2022-12-12T12:30:57.442Z,-0.625
2022-12-12T12:33:57.467Z,-0.375
2022-12-12T12:36:57.351Z,-0.375
2022-12-12T12:39:58.185Z,-0.625
2022-12-12T12:42:57.297Z,-0.625
2022-12-12T12:45:57.544Z,-0.625
2022-12-12T12:48:57.664Z,-0.625
2022-12-12T12:51:57.319Z,-0.437
2022-12-12T12:54:56.877Z,-0.437
2022-12-12T12:57:57.446Z,-0.187
2022-12-12T13:00:58.004Z,-0.375
2022-12-12T13:03:57.470Z,-0.937
2022-12-12T13:06:57.376Z,-1.437
2022-12-12T13:09:57.463Z,-2.125
2022-12-12T13:12:57.438Z,-2.687
2022-12-12T13:15:57.551Z,-2.937
2022-12-12T13:18:56.801Z,-3.125
2022-12-12T13:21:57.538Z,-3.125
2022-12-12T13:25:11.819Z,-3.312
2022-12-12T13:27:57.235Z,-3.375
2022-12-12T13:30:57.990Z,-3.375
2022-12-12T13:33:57.946Z,-3.437
2022-12-12T13:36:57.684Z,-3.437
2022-12-12T13:39:57.749Z,-3.437
2022-12-12T13:42:57.628Z,-3.437
2022-12-12T13:45:56.943Z,-3.625
2022-12-12T13:48:56.997Z,-3.625
2022-12-12T13:51:57.160Z,-3.625
2022-12-12T13:54:57.111Z,-3.625
2022-12-12T13:57:57.603Z,-3.812
2022-12-12T14:00:57.703Z,-3.937
2022-12-12T14:03:57.115Z,-4.062
2022-12-12T14:06:58.291Z,-4.125
2022-12-12T14:09:58.240Z,-4.25
2022-12-12T14:12:57.818Z,-4.375
2022-12-12T14:15:57.741Z,-4.375
2022-12-12T14:18:57.141Z,-4.375
2022-12-12T14:21:58.081Z,-4.375
2022-12-12T14:24:57.464Z,-4.187
2022-12-12T14:27:57.640Z,-4.187
2022-12-12T14:30:58.424Z,-4.187
2022-12-12T14:33:57.313Z,-4.562
2022-12-12T14:36:57.703Z,-4.562
2022-12-12T14:39:58.404Z,-4.562
2022-12-12T14:43:19.938Z,-4.562
2022-12-12T14:45:58.278Z,-4.625
2022-12-12T14:48:57.613Z,-4.75
2022-12-12T14:51:57.109Z,-4.812
2022-12-12T14:54:57.795Z,-5.0
2022-12-12T14:57:58.161Z,-5.0
2022-12-12T15:00:57.214Z,-4.937
2022-12-12T15:03:57.775Z,-4.812
2022-12-12T15:06:58.156Z,-4.687
2022-12-12T15:09:58.071Z,-4.687
2022-12-12T15:12:57.393Z,-4.75
2022-12-12T15:15:57.790Z,-4.875
2022-12-12T15:18:57.412Z,-4.875
2022-12-12T15:21:57.680Z,-4.875
2022-12-12T15:24:57.818Z,-5.0
2022-12-12T15:27:57.102Z,-5.187
2022-12-12T15:30:57.189Z,-5.187
2022-12-12T15:33:57.696Z,-5.312
2022-12-12T15:36:57.350Z,-5.312
2022-12-12T15:39:57.974Z,-5.25
2022-12-12T15:42:56.944Z,-5.125
2022-12-12T15:45:57.413Z,-5.062
2022-12-12T15:48:57.708Z,-5.0
2022-12-12T15:51:57.621Z,-4.937
2022-12-12T15:54:58.030Z,-4.812
2022-12-12T15:57:58.671Z,-4.75
2022-12-12T16:00:58.201Z,-4.687
2022-12-12T16:03:57.387Z,-4.625
2022-12-12T16:06:58.057Z,-4.625
2022-12-12T16:09:58.665Z,-4.5
2022-12-12T16:12:57.348Z,-4.437
2022-12-12T16:15:57.956Z,-4.25
2022-12-12T16:18:57.876Z,-4.125
2022-12-12T16:21:57.861Z,-4.125
2022-12-12T16:24:57.886Z,-3.875
2022-12-12T16:27:57.857Z,-3.875
2022-12-12T16:30:57.728Z,-3.812
2022-12-12T16:33:57.960Z,-3.812
2022-12-12T16:36:57.866Z,-3.812
2022-12-12T16:39:58.159Z,-3.75
2022-12-12T16:42:57.767Z,-3.75
2022-12-12T16:45:57.620Z,-3.75
2022-12-12T16:48:58.227Z,-3.687
2022-12-12T16:51:58.212Z,-3.687
2022-12-12T16:54:57.497Z,-3.75
2022-12-12T16:57:57.551Z,-3.75
2022-12-12T17:00:57.474Z,-3.75
2022-12-12T17:03:57.209Z,-3.75
2022-12-12T17:06:57.777Z,-3.75
2022-12-12T17:09:56.955Z,-3.812
2022-12-12T17:12:57.255Z,-3.75
2022-12-12T17:15:58.030Z,-3.75
2022-12-12T17:18:57.761Z,-3.75
2022-12-12T17:21:57.787Z,-3.75
2022-12-12T17:24:57.131Z,-3.75
2022-12-12T17:27:57.788Z,-3.812
2022-12-12T17:30:56.783Z,-3.875
2022-12-12T17:33:56.829Z,-3.937
2022-12-12T17:36:57.809Z,-4.0
2022-12-12T17:39:58.044Z,-4.0
2022-12-12T17:42:57.407Z,-4.0
2022-12-12T17:45:57.216Z,-4.0
2022-12-12T17:48:57.034Z,-4.062
2022-12-12T17:51:57.226Z,-4.125
2022-12-12T17:55:53.043Z,-4.125
2022-12-12T17:57:57.888Z,-4.187
2022-12-12T18:01:25.533Z,-4.25
2022-12-12T18:03:57.823Z,-4.312
2022-12-12T18:06:57.441Z,-4.312
2022-12-12T18:09:56.776Z,-5.0
2022-12-12T18:12:57.033Z,-5.125
2022-12-12T18:15:57.702Z,-5.375
2022-12-12T18:18:57.358Z,-5.562
2022-12-12T18:22:01.594Z,-5.687
2022-12-12T18:24:58.215Z,-5.5
2022-12-12T18:27:57.888Z,-5.5
2022-12-12T18:30:57.355Z,-5.625
2022-12-12T18:33:57.523Z,-5.75
2022-12-12T18:36:57.928Z,-5.75
2022-12-12T18:39:57.782Z,-5.75
2022-12-12T18:42:57.642Z,-5.937
2022-12-12T18:45:57.462Z,-5.937
2022-12-12T18:48:57.634Z,-6.125
2022-12-12T18:51:57.487Z,-5.875
2022-12-12T18:54:57.726Z,-5.75
2022-12-12T18:57:56.696Z,-5.937
2022-12-12T19:00:57.369Z,-5.937
2022-12-12T19:03:57.459Z,-6.312
2022-12-12T19:06:57.079Z,-6.312
2022-12-12T19:09:57.513Z,-6.562
2022-12-12T19:12:57.312Z,-6.687
2022-12-12T19:15:57.600Z,-6.687
2022-12-12T19:18:57.331Z,-6.875
2022-12-12T19:21:57.286Z,-6.875
2022-12-12T19:24:56.950Z,-6.812
2022-12-12T19:27:58.211Z,-6.812
2022-12-12T19:30:58.186Z,-6.812
2022-12-12T19:33:57.054Z,-6.437
2022-12-12T19:36:57.414Z,-6.187
2022-12-12T19:39:57.006Z,-6.125
2022-12-12T19:42:57.068Z,-5.812
2022-12-12T19:45:57.968Z,-5.875
2022-12-12T19:48:57.890Z,-6.125
2022-12-12T19:51:57.638Z,-6.125
2022-12-12T19:54:56.758Z,-6.375
2022-12-12T19:57:57.380Z,-6.437
2022-12-12T20:00:58.592Z,-6.437
2022-12-12T20:03:58.853Z,-6.562
2022-12-12T20:06:57.529Z,-6.687
2022-12-12T20:09:57.981Z,-6.562
2022-12-12T20:12:58.870Z,-6.562
2022-12-12T20:15:57.015Z,-6.687
2022-12-12T20:18:57.168Z,-6.687
2022-12-12T20:22:02.032Z,-6.625
2022-12-12T20:24:57.458Z,-6.75
2022-12-12T20:27:56.815Z,-6.937
2022-12-12T20:30:58.018Z,-6.937
2022-12-12T20:33:57.729Z,-7.812
2022-12-12T20:36:58.370Z,-7.5
2022-12-12T20:39:57.174Z,-7.312
2022-12-12T20:43:03.236Z,-7.312
2022-12-12T20:45:57.705Z,-7.187
2022-12-12T20:48:57.883Z,-7.25
2022-12-12T20:51:58.285Z,-7.25
2022-12-12T20:54:57.347Z,-7.25
2022-12-12T20:57:57.432Z,-7.125
2022-12-12T21:00:57.904Z,-7.125
2022-12-12T21:03:57.915Z,-7.187
2022-12-12T21:06:57.999Z,-7.25
2022-12-12T21:09:58.098Z,-7.25
2022-12-12T21:12:58.217Z,-7.25
2022-12-12T21:15:57.822Z,-7.25
2022-12-12T21:18:57.653Z,-7.312
2022-12-12T21:21:57.403Z,-7.375
2022-12-12T21:24:57.603Z,-7.312
2022-12-12T21:27:57.129Z,-7.25
2022-12-12T21:30:58.412Z,-7.312
2022-12-12T21:33:57.017Z,-7.25
2022-12-12T21:36:57.550Z,-7.125
2022-12-12T21:39:57.966Z,-7.062
2022-12-12T21:42:57.319Z,-6.875
2022-12-12T21:45:58.622Z,-6.875
2022-12-12T21:48:57.603Z,-6.875
2022-12-12T21:51:57.820Z,-6.937
2022-12-12T21:54:57.102Z,-7.0
2022-12-12T21:57:57.417Z,-7.25
2022-12-12T22:00:58.309Z,-7.375
2022-12-12T22:03:56.927Z,-7.375
2022-12-12T22:06:57.075Z,-7.562
2022-12-12T22:10:11.159Z,-7.562
2022-12-12T22:12:57.672Z,-7.75
2022-12-12T22:15:57.805Z,-7.687
2022-12-12T22:19:00.850Z,-7.625
2022-12-12T22:21:56.805Z,-7.625
2022-12-12T22:24:57.784Z,-7.5
2022-12-12T22:27:58.333Z,-7.562
2022-12-12T22:30:57.859Z,-7.687
2022-12-12T22:33:56.801Z,-7.687
2022-12-12T22:36:57.211Z,-7.812
2022-12-12T22:39:58.024Z,-7.875
2022-12-12T22:42:57.449Z,-7.875
2022-12-12T22:45:57.502Z,-8.062
2022-12-12T22:48:56.659Z,-8.062
2022-12-12T22:51:57.832Z,-8.125
2022-12-12T22:54:57.781Z,-8.062
2022-12-12T22:57:57.349Z,-7.875
2022-12-12T23:00:58.049Z,-7.812
2022-12-12T23:03:57.463Z,-7.75
2022-12-12T23:06:58.223Z,-7.812
2022-12-12T23:09:57.184Z,-7.812
2022-12-12T23:12:57.852Z,-7.812
2022-12-12T23:15:57.324Z,-7.625
2022-12-12T23:19:02.685Z,-7.625
2022-12-12T23:21:57.304Z,-7.687
2022-12-12T23:24:57.970Z,-7.687
2022-12-12T23:27:57.655Z,-7.687
2022-12-12T23:30:57.516Z,-7.687
2022-12-12T23:33:56.725Z,-7.687
2022-12-12T23:36:56.975Z,-8.062
2022-12-12T23:39:57.636Z,-8.125
2022-12-12T23:43:02.282Z,-8.125
2022-12-12T23:45:57.809Z,-8.187
2022-12-12T23:48:57.882Z,-8.187
2022-12-12T23:51:57.213Z,-8.187
2022-12-12T23:54:57.407Z,-8.187
2022-12-12T23:57:57.319Z,-8.187
